sensor_id;sensor_type;location;lat;lon;timestamp;temperature;humidity
18593;DHT22;9426;54.118;17.948;2024-03-06T00:01:56;4.40;99.90
18593;DHT22;9426;54.118;17.948;2024-03-06T00:07:21;4.00;99.90
18593;DHT22;9426;54.118;17.948;2024-03-06T00:12:44;4.10;99.90
18593;DHT22;9426;54.118;17.948;2024-03-06T00:18:08;4.10;99.90
18593;DHT22;9426;54.118;17.948;2024-03-06T00:23:33;4.00;99.90
18593;DHT22;9426;54.118;17.948;2024-03-06T00:28:57;4.10;99.90
18593;DHT22;9426;54.118;17.948;2024-03-06T00:34:20;4.00;99.90
18593;DHT22;9426;54.118;17.948;2024-03-06T00:39:45;4.10;99.90
18593;DHT22;9426;54.118;17.948;2024-03-06T00:45:09;4.10;99.90
18593;DHT22;9426;54.118;17.948;2024-03-06T00:50:33;4.10;99.90
18593;DHT22;9426;54.118;17.948;2024-03-06T00:55:59;4.10;99.90
18593;DHT22;9426;54.118;17.948;2024-03-06T01:01:22;4.10;99.90
18593;DHT22;9426;54.118;17.948;2024-03-06T01:06:46;4.10;99.90
18593;DHT22;9426;54.118;17.948;2024-03-06T01:12:11;4.10;99.90
18593;DHT22;9426;54.118;17.948;2024-03-06T01:17:35;4.20;99.90
18593;DHT22;9426;54.118;17.948;2024-03-06T01:22:58;4.20;99.90
18593;DHT22;9426;54.118;17.948;2024-03-06T01:28:23;4.20;99.90
18593;DHT22;9426;54.118;17.948;2024-03-06T01:33:47;4.20;99.90
18593;DHT22;9426;54.118;17.948;2024-03-06T01:39:11;4.10;99.90
18593;DHT22;9426;54.118;17.948;2024-03-06T01:44:36;4.20;99.90
18593;DHT22;9426;54.118;17.948;2024-03-06T01:50:00;4.20;99.90
18593;DHT22;9426;54.118;17.948;2024-03-06T01:55:24;4.20;99.90
18593;DHT22;9426;54.118;17.948;2024-03-06T02:00:51;4.20;99.90
18593;DHT22;9426;54.118;17.948;2024-03-06T02:06:15;4.20;99.90
18593;DHT22;9426;54.118;17.948;2024-03-06T02:11:42;4.20;99.90
18593;DHT22;9426;54.118;17.948;2024-03-06T02:17:07;4.30;99.90
18593;DHT22;9426;54.118;17.948;2024-03-06T02:22:32;4.30;99.90
18593;DHT22;9426;54.118;17.948;2024-03-06T02:27:56;4.30;99.90
18593;DHT22;9426;54.118;17.948;2024-03-06T02:33:20;4.30;99.90
18593;DHT22;9426;54.118;17.948;2024-03-06T02:38:46;4.30;99.90
18593;DHT22;9426;54.118;17.948;2024-03-06T02:44:11;4.30;99.90
18593;DHT22;9426;54.118;17.948;2024-03-06T02:49:34;4.30;99.90
18593;DHT22;9426;54.118;17.948;2024-03-06T02:55:00;4.30;99.90
18593;DHT22;9426;54.118;17.948;2024-03-06T03:00:23;4.30;99.90
18593;DHT22;9426;54.118;17.948;2024-03-06T03:05:47;4.30;99.90
18593;DHT22;9426;54.118;17.948;2024-03-06T03:11:12;4.30;99.90
18593;DHT22;9426;54.118;17.948;2024-03-06T03:16:35;4.30;99.90
18593;DHT22;9426;54.118;17.948;2024-03-06T03:22:00;4.30;99.90
18593;DHT22;9426;54.118;17.948;2024-03-06T03:27:27;4.30;99.90
18593;DHT22;9426;54.118;17.948;2024-03-06T03:32:51;4.30;99.90
18593;DHT22;9426;54.118;17.948;2024-03-06T03:38:14;4.40;99.90
18593;DHT22;9426;54.118;17.948;2024-03-06T03:43:40;4.40;99.90
18593;DHT22;9426;54.118;17.948;2024-03-06T03:49:03;4.30;99.90
18593;DHT22;9426;54.118;17.948;2024-03-06T03:54:28;4.40;99.90
18593;DHT22;9426;54.118;17.948;2024-03-06T03:59:53;4.40;99.90
18593;DHT22;9426;54.118;17.948;2024-03-06T04:05:16;4.40;99.90
18593;DHT22;9426;54.118;17.948;2024-03-06T04:10:41;4.40;99.90
18593;DHT22;9426;54.118;17.948;2024-03-06T04:16:06;4.40;99.90
18593;DHT22;9426;54.118;17.948;2024-03-06T04:21:30;4.40;99.90
18593;DHT22;9426;54.118;17.948;2024-03-06T04:26:53;4.30;99.90
18593;DHT22;9426;54.118;17.948;2024-03-06T04:32:18;4.30;99.90
18593;DHT22;9426;54.118;17.948;2024-03-06T04:37:42;4.30;99.90
18593;DHT22;9426;54.118;17.948;2024-03-06T04:43:07;4.30;99.90
18593;DHT22;9426;54.118;17.948;2024-03-06T04:48:31;4.30;99.90
18593;DHT22;9426;54.118;17.948;2024-03-06T04:53:54;4.30;99.90
18593;DHT22;9426;54.118;17.948;2024-03-06T04:59:18;4.30;99.90
18593;DHT22;9426;54.118;17.948;2024-03-06T05:04:44;4.30;99.90
18593;DHT22;9426;54.118;17.948;2024-03-06T05:10:26;4.30;99.90
18593;DHT22;9426;54.118;17.948;2024-03-06T05:16:06;4.30;99.90
18593;DHT22;9426;54.118;17.948;2024-03-06T05:21:49;4.20;99.90
18593;DHT22;9426;54.118;17.948;2024-03-06T05:27:30;4.20;99.90
18593;DHT22;9426;54.118;17.948;2024-03-06T05:33:11;4.20;99.90
18593;DHT22;9426;54.118;17.948;2024-03-06T05:38:54;4.20;99.90
18593;DHT22;9426;54.118;17.948;2024-03-06T05:44:34;4.20;99.90
18593;DHT22;9426;54.118;17.948;2024-03-06T05:50:15;4.20;99.90
18593;DHT22;9426;54.118;17.948;2024-03-06T05:56:01;4.20;99.90
18593;DHT22;9426;54.118;17.948;2024-03-06T06:01:41;4.20;99.90
18593;DHT22;9426;54.118;17.948;2024-03-06T06:07:06;4.10;99.90
18593;DHT22;9426;54.118;17.948;2024-03-06T06:12:31;4.10;99.90
18593;DHT22;9426;54.118;17.948;2024-03-06T06:17:54;4.20;99.90
18593;DHT22;9426;54.118;17.948;2024-03-06T06:23:18;4.20;99.90
18593;DHT22;9426;54.118;17.948;2024-03-06T06:28:43;4.20;99.90
18593;DHT22;9426;54.118;17.948;2024-03-06T06:34:08;4.20;99.90
18593;DHT22;9426;54.118;17.948;2024-03-06T06:39:35;4.30;99.90
18593;DHT22;9426;54.118;17.948;2024-03-06T06:45:01;4.40;99.90
18593;DHT22;9426;54.118;17.948;2024-03-06T06:50:25;4.40;99.90
18593;DHT22;9426;54.118;17.948;2024-03-06T06:55:49;4.50;99.90
18593;DHT22;9426;54.118;17.948;2024-03-06T07:01:14;4.50;99.90
18593;DHT22;9426;54.118;17.948;2024-03-06T07:06:39;4.60;99.90
18593;DHT22;9426;54.118;17.948;2024-03-06T07:12:03;4.60;99.90
18593;DHT22;9426;54.118;17.948;2024-03-06T07:17:28;4.60;99.90
18593;DHT22;9426;54.118;17.948;2024-03-06T07:22:52;4.80;99.90
18593;DHT22;9426;54.118;17.948;2024-03-06T07:28:15;4.80;99.90
18593;DHT22;9426;54.118;17.948;2024-03-06T07:33:40;4.90;99.90
18593;DHT22;9426;54.118;17.948;2024-03-06T07:39:04;4.90;99.90
18593;DHT22;9426;54.118;17.948;2024-03-06T07:44:27;5.00;99.90
18593;DHT22;9426;54.118;17.948;2024-03-06T07:49:52;5.00;99.90
18593;DHT22;9426;54.118;17.948;2024-03-06T07:55:15;5.10;99.90
18593;DHT22;9426;54.118;17.948;2024-03-06T08:00:40;5.20;99.90
18593;DHT22;9426;54.118;17.948;2024-03-06T08:06:06;5.30;99.90
18593;DHT22;9426;54.118;17.948;2024-03-06T08:11:29;5.10;99.90
18593;DHT22;9426;54.118;17.948;2024-03-06T08:16:52;5.00;99.90
18593;DHT22;9426;54.118;17.948;2024-03-06T08:22:17;5.10;99.90
18593;DHT22;9426;54.118;17.948;2024-03-06T08:27:42;5.10;99.90
18593;DHT22;9426;54.118;17.948;2024-03-06T08:33:05;5.10;99.90
18593;DHT22;9426;54.118;17.948;2024-03-06T08:38:30;5.30;99.90
18593;DHT22;9426;54.118;17.948;2024-03-06T08:43:54;5.40;99.90
18593;DHT22;9426;54.118;17.948;2024-03-06T08:49:17;5.50;99.90
18593;DHT22;9426;54.118;17.948;2024-03-06T08:54:42;5.60;99.90
18593;DHT22;9426;54.118;17.948;2024-03-06T09:00:07;5.60;99.90
18593;DHT22;9426;54.118;17.948;2024-03-06T09:05:32;5.70;99.90
18593;DHT22;9426;54.118;17.948;2024-03-06T09:10:57;5.80;99.90
18593;DHT22;9426;54.118;17.948;2024-03-06T09:16:22;5.90;99.90
18593;DHT22;9426;54.118;17.948;2024-03-06T09:21:46;6.00;99.90
18593;DHT22;9426;54.118;17.948;2024-03-06T09:27:13;6.20;99.90
18593;DHT22;9426;54.118;17.948;2024-03-06T09:32:38;6.20;99.90
18593;DHT22;9426;54.118;17.948;2024-03-06T09:38:02;6.30;99.90
18593;DHT22;9426;54.118;17.948;2024-03-06T09:43:27;6.40;99.90
18593;DHT22;9426;54.118;17.948;2024-03-06T09:48:54;6.50;99.90
18593;DHT22;9426;54.118;17.948;2024-03-06T09:54:18;6.80;99.90
18593;DHT22;9426;54.118;17.948;2024-03-06T09:59:43;6.90;99.90
18593;DHT22;9426;54.118;17.948;2024-03-06T10:05:20;7.00;99.90
18593;DHT22;9426;54.118;17.948;2024-03-06T10:10:44;7.00;99.90
18593;DHT22;9426;54.118;17.948;2024-03-06T10:16:10;7.00;99.90
18593;DHT22;9426;54.118;17.948;2024-03-06T10:21:36;7.20;99.90
18593;DHT22;9426;54.118;17.948;2024-03-06T10:26:59;7.40;99.90
18593;DHT22;9426;54.118;17.948;2024-03-06T10:32:24;7.60;99.90
18593;DHT22;9426;54.118;17.948;2024-03-06T10:37:48;7.90;99.90
18593;DHT22;9426;54.118;17.948;2024-03-06T10:43:12;8.20;99.90
18593;DHT22;9426;54.118;17.948;2024-03-06T10:48:37;8.40;99.90
18593;DHT22;9426;54.118;17.948;2024-03-06T10:54:03;8.40;99.90
18593;DHT22;9426;54.118;17.948;2024-03-06T10:59:28;8.50;99.90
18593;DHT22;9426;54.118;17.948;2024-03-06T11:04:53;8.80;99.90
18593;DHT22;9426;54.118;17.948;2024-03-06T11:10:30;10.10;99.90
18593;DHT22;9426;54.118;17.948;2024-03-06T11:15:57;11.70;99.90
18593;DHT22;9426;54.118;17.948;2024-03-06T11:21:32;12.50;99.90
18593;DHT22;9426;54.118;17.948;2024-03-06T11:26:56;13.40;99.90
18593;DHT22;9426;54.118;17.948;2024-03-06T11:32:23;13.50;99.90
18593;DHT22;9426;54.118;17.948;2024-03-06T11:37:50;14.20;99.90
18593;DHT22;9426;54.118;17.948;2024-03-06T11:43:23;14.30;99.90
18593;DHT22;9426;54.118;17.948;2024-03-06T11:48:55;14.70;99.90
18593;DHT22;9426;54.118;17.948;2024-03-06T11:54:22;14.60;99.90
18593;DHT22;9426;54.118;17.948;2024-03-06T11:59:47;14.60;99.90
18593;DHT22;9426;54.118;17.948;2024-03-06T12:05:11;15.20;99.90
18593;DHT22;9426;54.118;17.948;2024-03-06T12:10:38;15.00;99.90
18593;DHT22;9426;54.118;17.948;2024-03-06T12:16:06;15.30;99.90
18593;DHT22;9426;54.118;17.948;2024-03-06T12:21:31;15.10;99.90
18593;DHT22;9426;54.118;17.948;2024-03-06T12:27:03;14.90;99.90
18593;DHT22;9426;54.118;17.948;2024-03-06T12:32:27;14.90;99.90
18593;DHT22;9426;54.118;17.948;2024-03-06T12:37:52;15.00;99.90
18593;DHT22;9426;54.118;17.948;2024-03-06T12:43:17;15.80;99.90
18593;DHT22;9426;54.118;17.948;2024-03-06T12:48:40;16.00;99.90
18593;DHT22;9426;54.118;17.948;2024-03-06T12:54:03;15.40;99.90
18593;DHT22;9426;54.118;17.948;2024-03-06T12:59:29;14.90;99.90
18593;DHT22;9426;54.118;17.948;2024-03-06T13:04:52;15.10;99.90
18593;DHT22;9426;54.118;17.948;2024-03-06T13:10:16;14.70;99.90
18593;DHT22;9426;54.118;17.948;2024-03-06T13:15:41;15.10;99.90
18593;DHT22;9426;54.118;17.948;2024-03-06T13:21:05;15.30;99.90
18593;DHT22;9426;54.118;17.948;2024-03-06T13:26:28;15.70;99.90
18593;DHT22;9426;54.118;17.948;2024-03-06T13:31:53;15.10;99.90
18593;DHT22;9426;54.118;17.948;2024-03-06T13:37:17;15.20;99.90
18593;DHT22;9426;54.118;17.948;2024-03-06T13:42:44;15.00;99.90
18593;DHT22;9426;54.118;17.948;2024-03-06T13:48:14;14.80;99.90
18593;DHT22;9426;54.118;17.948;2024-03-06T13:53:38;15.00;99.90
18593;DHT22;9426;54.118;17.948;2024-03-06T13:59:02;14.90;99.90
18593;DHT22;9426;54.118;17.948;2024-03-06T14:04:27;14.90;99.90
18593;DHT22;9426;54.118;17.948;2024-03-06T14:09:50;14.60;99.90
18593;DHT22;9426;54.118;17.948;2024-03-06T14:15:14;14.00;99.90
18593;DHT22;9426;54.118;17.948;2024-03-06T14:20:41;14.10;99.90
18593;DHT22;9426;54.118;17.948;2024-03-06T14:26:04;13.30;99.90
18593;DHT22;9426;54.118;17.948;2024-03-06T14:31:28;13.00;99.90
18593;DHT22;9426;54.118;17.948;2024-03-06T14:36:53;11.70;99.90
18593;DHT22;9426;54.118;17.948;2024-03-06T14:42:18;9.70;99.90
18593;DHT22;9426;54.118;17.948;2024-03-06T14:47:41;8.60;99.90
18593;DHT22;9426;54.118;17.948;2024-03-06T14:53:06;7.70;99.90
18593;DHT22;9426;54.118;17.948;2024-03-06T14:58:30;7.20;99.90
18593;DHT22;9426;54.118;17.948;2024-03-06T15:03:54;6.70;99.90
18593;DHT22;9426;54.118;17.948;2024-03-06T15:09:19;6.50;99.90
18593;DHT22;9426;54.118;17.948;2024-03-06T15:14:45;6.20;99.90
18593;DHT22;9426;54.118;17.948;2024-03-06T15:20:11;6.00;99.90
18593;DHT22;9426;54.118;17.948;2024-03-06T15:25:36;5.90;99.90
18593;DHT22;9426;54.118;17.948;2024-03-06T15:31:00;5.80;99.90
18593;DHT22;9426;54.118;17.948;2024-03-06T15:36:25;5.70;99.90
18593;DHT22;9426;54.118;17.948;2024-03-06T15:41:51;5.70;99.90
18593;DHT22;9426;54.118;17.948;2024-03-06T15:47:15;5.60;99.90
18593;DHT22;9426;54.118;17.948;2024-03-06T15:52:39;5.50;99.90
18593;DHT22;9426;54.118;17.948;2024-03-06T15:58:04;5.30;99.90
18593;DHT22;9426;54.118;17.948;2024-03-06T16:03:28;5.10;99.90
18593;DHT22;9426;54.118;17.948;2024-03-06T16:08:51;4.90;99.90
18593;DHT22;9426;54.118;17.948;2024-03-06T16:14:17;4.70;99.90
18593;DHT22;9426;54.118;17.948;2024-03-06T16:19:40;4.60;99.90
18593;DHT22;9426;54.118;17.948;2024-03-06T16:25:07;4.40;99.90
18593;DHT22;9426;54.118;17.948;2024-03-06T16:30:32;4.20;99.90
18593;DHT22;9426;54.118;17.948;2024-03-06T16:35:55;4.00;99.90
18593;DHT22;9426;54.118;17.948;2024-03-06T16:41:19;3.90;99.90
18593;DHT22;9426;54.118;17.948;2024-03-06T16:46:44;3.70;99.90
18593;DHT22;9426;54.118;17.948;2024-03-06T16:52:07;3.50;99.90
18593;DHT22;9426;54.118;17.948;2024-03-06T16:57:33;3.30;99.90
18593;DHT22;9426;54.118;17.948;2024-03-06T17:02:59;3.20;99.90
18593;DHT22;9426;54.118;17.948;2024-03-06T17:08:23;3.10;99.90
18593;DHT22;9426;54.118;17.948;2024-03-06T17:13:47;2.90;99.90
18593;DHT22;9426;54.118;17.948;2024-03-06T17:19:12;2.70;99.90
18593;DHT22;9426;54.118;17.948;2024-03-06T17:24:37;2.60;99.90
18593;DHT22;9426;54.118;17.948;2024-03-06T17:30:01;2.50;99.90
18593;DHT22;9426;54.118;17.948;2024-03-06T17:35:26;2.40;99.90
18593;DHT22;9426;54.118;17.948;2024-03-06T17:40:49;2.40;99.90
18593;DHT22;9426;54.118;17.948;2024-03-06T17:46:13;2.30;99.90
18593;DHT22;9426;54.118;17.948;2024-03-06T17:51:38;2.20;99.90
18593;DHT22;9426;54.118;17.948;2024-03-06T17:57:03;2.20;99.90
18593;DHT22;9426;54.118;17.948;2024-03-06T18:02:26;2.10;99.90
18593;DHT22;9426;54.118;17.948;2024-03-06T18:07:52;2.10;99.90
18593;DHT22;9426;54.118;17.948;2024-03-06T18:13:17;2.00;99.90
18593;DHT22;9426;54.118;17.948;2024-03-06T18:18:45;2.00;99.90
18593;DHT22;9426;54.118;17.948;2024-03-06T18:24:15;1.90;99.90
18593;DHT22;9426;54.118;17.948;2024-03-06T18:29:39;1.90;99.90
18593;DHT22;9426;54.118;17.948;2024-03-06T18:35:03;1.80;99.90
18593;DHT22;9426;54.118;17.948;2024-03-06T18:40:30;1.60;99.90
18593;DHT22;9426;54.118;17.948;2024-03-06T18:45:56;1.70;99.90
18593;DHT22;9426;54.118;17.948;2024-03-06T18:51:20;1.70;99.90
18593;DHT22;9426;54.118;17.948;2024-03-06T18:56:46;1.60;99.90
18593;DHT22;9426;54.118;17.948;2024-03-06T19:02:10;1.60;99.90
18593;DHT22;9426;54.118;17.948;2024-03-06T19:07:34;1.50;99.90
18593;DHT22;9426;54.118;17.948;2024-03-06T19:13:01;1.50;99.90
18593;DHT22;9426;54.118;17.948;2024-03-06T19:18:25;1.40;99.90
18593;DHT22;9426;54.118;17.948;2024-03-06T19:23:49;1.40;99.90
18593;DHT22;9426;54.118;17.948;2024-03-06T19:29:14;1.30;99.90
18593;DHT22;9426;54.118;17.948;2024-03-06T19:34:38;1.30;99.90
18593;DHT22;9426;54.118;17.948;2024-03-06T19:40:02;1.20;99.90
18593;DHT22;9426;54.118;17.948;2024-03-06T19:45:30;1.10;99.90
18593;DHT22;9426;54.118;17.948;2024-03-06T19:50:54;1.00;99.90
18593;DHT22;9426;54.118;17.948;2024-03-06T19:56:17;0.90;99.90
18593;DHT22;9426;54.118;17.948;2024-03-06T20:01:43;0.90;99.90
18593;DHT22;9426;54.118;17.948;2024-03-06T20:07:07;0.80;99.90
18593;DHT22;9426;54.118;17.948;2024-03-06T20:12:31;0.80;99.90
18593;DHT22;9426;54.118;17.948;2024-03-06T20:17:56;0.70;99.90
18593;DHT22;9426;54.118;17.948;2024-03-06T20:23:19;0.70;99.90
18593;DHT22;9426;54.118;17.948;2024-03-06T20:28:43;0.70;99.90
18593;DHT22;9426;54.118;17.948;2024-03-06T20:34:12;0.60;99.90
18593;DHT22;9426;54.118;17.948;2024-03-06T20:39:39;0.50;99.90
18593;DHT22;9426;54.118;17.948;2024-03-06T20:45:04;0.50;99.90
18593;DHT22;9426;54.118;17.948;2024-03-06T20:50:29;0.50;99.90
18593;DHT22;9426;54.118;17.948;2024-03-06T20:55:55;0.40;99.90
18593;DHT22;9426;54.118;17.948;2024-03-06T21:01:19;0.30;99.90
18593;DHT22;9426;54.118;17.948;2024-03-06T21:06:44;0.30;99.90
18593;DHT22;9426;54.118;17.948;2024-03-06T21:12:09;0.20;99.90
18593;DHT22;9426;54.118;17.948;2024-03-06T21:17:33;0.20;99.90
18593;DHT22;9426;54.118;17.948;2024-03-06T21:22:58;0.20;99.90
18593;DHT22;9426;54.118;17.948;2024-03-06T21:28:22;0.10;99.90
18593;DHT22;9426;54.118;17.948;2024-03-06T21:33:46;0.20;99.90
18593;DHT22;9426;54.118;17.948;2024-03-06T21:39:11;0.10;99.90
18593;DHT22;9426;54.118;17.948;2024-03-06T21:44:35;0.10;99.90
18593;DHT22;9426;54.118;17.948;2024-03-06T21:49:59;0.20;99.90
18593;DHT22;9426;54.118;17.948;2024-03-06T21:55:24;0.20;99.90
18593;DHT22;9426;54.118;17.948;2024-03-06T22:00:48;0.20;99.90
18593;DHT22;9426;54.118;17.948;2024-03-06T22:06:11;0.20;99.90
18593;DHT22;9426;54.118;17.948;2024-03-06T22:11:40;0.10;99.90
18593;DHT22;9426;54.118;17.948;2024-03-06T22:17:04;0.20;99.90
18593;DHT22;9426;54.118;17.948;2024-03-06T22:22:27;0.10;99.90
18593;DHT22;9426;54.118;17.948;2024-03-06T22:27:53;0.00;99.90
18593;DHT22;9426;54.118;17.948;2024-03-06T22:33:17;-0.10;99.90
18593;DHT22;9426;54.118;17.948;2024-03-06T22:38:42;-0.20;99.90
18593;DHT22;9426;54.118;17.948;2024-03-06T22:44:07;-0.30;99.90
18593;DHT22;9426;54.118;17.948;2024-03-06T22:49:31;-0.50;99.90
18593;DHT22;9426;54.118;17.948;2024-03-06T22:54:55;-0.50;99.90
18593;DHT22;9426;54.118;17.948;2024-03-06T23:00:20;-0.50;99.90
18593;DHT22;9426;54.118;17.948;2024-03-06T23:05:50;-0.60;99.90
18593;DHT22;9426;54.118;17.948;2024-03-06T23:11:15;-0.60;99.90
18593;DHT22;9426;54.118;17.948;2024-03-06T23:16:40;-0.60;99.90
18593;DHT22;9426;54.118;17.948;2024-03-06T23:22:03;-0.70;99.90
18593;DHT22;9426;54.118;17.948;2024-03-06T23:27:27;-0.80;99.90
